Time;durP1;ratioP1;P1;durP2;ratioP2;P2;SDS_P1;SDS_P2;PMS_P1;PMS_P2;Temp;Humidity;BMP_temperature;BMP_pressure;BME280_temperature;BME280_humidity;BME280_pressure;Samples;Min_cycle;Max_cycle;Signal;HPM_P1;HPM_P2
2021/09/18 00:00:13;;;;;;;2.45;1.90;;;12.90;99.90;;;;;;6151854;23;20021;-73
2021/09/18 00:02:38;;;;;;;2.35;1.75;;;12.90;99.90;;;;;;6150941;23;20014;-73
2021/09/18 00:05:04;;;;;;;2.45;1.90;;;12.90;99.90;;;;;;6151632;23;20025;-73
2021/09/18 00:07:30;;;;;;;3.10;1.52;;;12.90;99.90;;;;;;6151628;23;20018;-73
2021/09/18 00:09:55;;;;;;;3.08;2.20;;;12.90;99.90;;;;;;6152010;23;20096;-73
2021/09/18 00:12:21;;;;;;;3.05;2.00;;;12.90;99.90;;;;;;6151768;23;20017;-73
2021/09/18 00:14:47;;;;;;;2.00;1.80;;;12.80;99.90;;;;;;6126461;23;20022;-75
2021/09/18 00:17:12;;;;;;;3.80;2.00;;;12.90;99.90;;;;;;6151281;23;20044;-73
2021/09/18 00:19:38;;;;;;;3.00;2.25;;;12.90;99.90;;;;;;6126704;23;20019;-73
2021/09/18 00:22:03;;;;;;;4.53;2.10;;;12.70;99.90;;;;;;6152778;23;20014;-73
2021/09/18 00:24:29;;;;;;;2.47;1.80;;;12.60;99.90;;;;;;6150436;23;20013;-73
2021/09/18 00:26:55;;;;;;;3.47;1.73;;;12.70;99.90;;;;;;6151585;23;20013;-73
2021/09/18 00:29:20;;;;;;;4.20;1.83;;;12.70;99.90;;;;;;6152719;23;20013;-73
2021/09/18 00:31:46;;;;;;;2.03;1.80;;;12.70;99.90;;;;;;6152829;23;20148;-73
2021/09/18 00:34:12;;;;;;;4.45;2.00;;;12.70;99.90;;;;;;6153796;23;20137;-73
2021/09/18 00:36:37;;;;;;;4.43;2.03;;;12.80;99.90;;;;;;6153614;23;20017;-73
2021/09/18 00:39:03;;;;;;;3.17;2.00;;;12.80;99.90;;;;;;6153510;23;20020;-73
2021/09/18 00:41:29;;;;;;;2.75;1.70;;;12.80;99.90;;;;;;6153555;23;20109;-73
2021/09/18 00:43:58;;;;;;;4.57;1.88;;;12.80;99.90;;;;;;6127750;23;20017;-73
2021/09/18 00:46:24;;;;;;;1.98;1.42;;;12.70;99.90;;;;;;6154260;23;20098;-71
2021/09/18 00:48:50;;;;;;;1.83;1.35;;;12.60;99.90;;;;;;6152977;23;20009;-71
2021/09/18 00:51:17;;;;;;;2.70;1.70;;;12.50;99.90;;;;;;6128609;23;20020;-71
2021/09/18 00:53:44;;;;;;;2.13;1.63;;;12.50;99.90;;;;;;6152822;23;20009;-73
2021/09/18 00:56:11;;;;;;;3.28;1.70;;;12.40;99.90;;;;;;6152832;23;20095;-73
2021/09/18 00:58:37;;;;;;;1.85;1.70;;;12.30;99.90;;;;;;6152270;23;20323;-73
2021/09/18 01:01:03;;;;;;;2.05;1.77;;;12.40;99.90;;;;;;6153195;23;20024;-73
2021/09/18 01:03:29;;;;;;;2.85;1.95;;;12.40;99.90;;;;;;6153059;23;20013;-73
2021/09/18 01:05:58;;;;;;;2.42;1.83;;;12.30;99.90;;;;;;6155324;23;20385;-73
2021/09/18 01:08:27;;;;;;;2.55;1.63;;;12.20;99.90;;;;;;6184948;23;20025;-73
2021/09/18 01:10:53;;;;;;;2.47;2.15;;;12.20;99.90;;;;;;6157978;23;20029;-74
2021/09/18 01:13:20;;;;;;;2.00;1.90;;;12.20;99.90;;;;;;6184440;23;20422;-73
2021/09/18 01:15:47;;;;;;;2.25;1.88;;;12.10;99.90;;;;;;6157076;23;20071;-73
2021/09/18 01:18:13;;;;;;;3.47;1.70;;;12.10;99.90;;;;;;6155680;23;20013;-73
2021/09/18 01:20:41;;;;;;;1.73;1.63;;;12.10;99.90;;;;;;6156075;23;20468;-73
2021/09/18 01:23:09;;;;;;;2.72;1.88;;;12.10;99.90;;;;;;6182900;23;20021;-73
2021/09/18 01:25:36;;;;;;;2.15;1.63;;;12.10;99.90;;;;;;6183058;23;20511;-73
2021/09/18 01:28:05;;;;;;;2.05;1.80;;;12.10;99.90;;;;;;6132742;23;20040;-73
2021/09/18 01:30:33;;;;;;;2.70;2.00;;;12.10;99.90;;;;;;6156548;23;20009;-73
2021/09/18 01:32:59;;;;;;;3.40;1.95;;;12.10;99.90;;;;;;6156598;23;20013;-73
2021/09/18 01:35:26;;;;;;;2.15;1.70;;;12.20;99.90;;;;;;6157046;23;20444;-73
2021/09/18 01:37:51;;;;;;;3.20;2.05;;;12.10;99.90;;;;;;6156612;23;20336;-73
2021/09/18 01:40:24;;;;;;;3.67;1.90;;;12.10;99.90;;;;;;6157439;23;20017;-73
2021/09/18 01:42:50;;;;;;;2.60;2.25;;;12.00;99.90;;;;;;6157659;23;20629;-73
2021/09/18 01:45:16;;;;;;;3.95;2.10;;;12.00;99.90;;;;;;6156744;23;20100;-73
2021/09/18 01:47:54;;;;;;;2.72;2.03;;;11.90;99.90;;;;;;6132047;23;20452;-73
2021/09/18 01:52:58;;;;;;;2.42;1.73;;;11.70;99.90;;;;;;6122375;23;20030;-73
2021/09/18 01:55:24;;;;;;;4.32;2.00;;;11.70;99.90;;;;;;6096181;23;20050;-73
2021/09/18 01:57:52;;;;;;;3.67;2.25;;;11.70;99.90;;;;;;6124032;23;20017;-73
2021/09/18 02:00:19;;;;;;;3.00;2.17;;;11.60;99.90;;;;;;6123752;23;20438;-73
2021/09/18 02:02:45;;;;;;;2.30;2.00;;;11.60;99.90;;;;;;6096820;23;20013;-73
2021/09/18 02:05:11;;;;;;;3.78;1.80;;;11.50;99.90;;;;;;6073039;23;20022;-73
2021/09/18 02:07:37;;;;;;;2.50;2.13;;;11.50;99.90;;;;;;6096177;23;20021;-73
2021/09/18 02:10:06;;;;;;;2.10;1.90;;;11.50;99.90;;;;;;6121711;23;20013;-73
2021/09/18 02:12:32;;;;;;;2.20;1.92;;;11.50;99.90;;;;;;6096708;23;20005;-73
2021/09/18 02:14:58;;;;;;;3.08;2.42;;;11.50;99.90;;;;;;6096975;23;20323;-73
2021/09/18 02:17:24;;;;;;;2.20;1.65;;;11.50;99.90;;;;;;6096729;23;20092;-73
2021/09/18 02:19:50;;;;;;;1.88;1.73;;;11.50;99.90;;;;;;6096062;23;20034;-73
2021/09/18 02:22:15;;;;;;;2.60;2.08;;;11.40;99.90;;;;;;6123311;23;20024;-73
2021/09/18 02:24:41;;;;;;;2.60;2.40;;;11.40;99.90;;;;;;6096132;23;20461;-73
2021/09/18 02:27:06;;;;;;;2.10;1.90;;;11.50;99.90;;;;;;6071936;23;20018;-73
2021/09/18 02:29:32;;;;;;;4.18;2.17;;;11.50;99.90;;;;;;6096864;23;20028;-73
2021/09/18 02:31:57;;;;;;;3.38;2.20;;;11.50;99.90;;;;;;6097060;23;20100;-73
2021/09/18 02:34:23;;;;;;;4.00;2.05;;;11.60;99.90;;;;;;6096762;23;20021;-73
2021/09/18 02:36:48;;;;;;;2.35;2.10;;;11.60;99.90;;;;;;6121903;23;20014;-73
2021/09/18 02:39:14;;;;;;;2.42;1.90;;;11.70;99.90;;;;;;6095640;23;20315;-73
2021/09/18 02:41:39;;;;;;;4.05;2.35;;;11.70;99.90;;;;;;6095984;23;20018;-73
2021/09/18 02:44:05;;;;;;;2.28;2.08;;;11.80;99.90;;;;;;6095958;23;20084;-73
2021/09/18 02:46:31;;;;;;;3.75;2.53;;;11.80;99.90;;;;;;6095302;23;20014;-73
2021/09/18 02:48:56;;;;;;;2.67;2.47;;;11.80;99.90;;;;;;6096710;23;20014;-73
2021/09/18 02:51:22;;;;;;;2.22;2.00;;;11.80;99.90;;;;;;6102347;23;20021;-73
2021/09/18 02:53:48;;;;;;;4.50;2.20;;;11.90;99.90;;;;;;6120387;23;20026;-73
2021/09/18 02:56:13;;;;;;;5.07;2.40;;;11.90;99.90;;;;;;6119891;23;20029;-73
2021/09/18 02:58:39;;;;;;;3.78;1.95;;;12.00;99.90;;;;;;6120166;23;20235;-73
2021/09/18 03:01:04;;;;;;;2.72;2.00;;;12.00;99.90;;;;;;6120673;23;20053;-73
2021/09/18 03:03:30;;;;;;;2.17;1.98;;;12.00;99.90;;;;;;6120740;23;20061;-73
2021/09/18 03:05:56;;;;;;;2.30;1.85;;;12.10;99.90;;;;;;6120538;23;20021;-73
2021/09/18 03:08:22;;;;;;;3.55;2.10;;;12.10;99.90;;;;;;6120235;23;20049;-73
2021/09/18 03:10:48;;;;;;;4.35;2.13;;;12.10;99.90;;;;;;6096784;23;20025;-73
2021/09/18 03:13:13;;;;;;;2.42;1.95;;;12.20;99.90;;;;;;6122593;23;20014;-73
2021/09/18 03:15:39;;;;;;;2.22;2.00;;;12.10;99.90;;;;;;6119949;23;20323;-73
2021/09/18 03:18:04;;;;;;;3.05;2.42;;;12.10;99.90;;;;;;6119855;23;20017;-73
2021/09/18 03:20:30;;;;;;;2.40;1.92;;;12.10;99.90;;;;;;6120476;23;20089;-73
2021/09/18 03:22:55;;;;;;;2.70;2.08;;;12.00;99.90;;;;;;6120727;23;20345;-73
2021/09/18 03:25:21;;;;;;;1.85;1.75;;;12.10;99.90;;;;;;6120058;23;20061;-73
2021/09/18 03:27:46;;;;;;;2.63;2.17;;;12.00;99.90;;;;;;6120016;23;20010;-73
2021/09/18 03:30:13;;;;;;;2.70;1.85;;;11.90;99.90;;;;;;6122408;23;20331;-73
2021/09/18 03:32:39;;;;;;;2.10;1.85;;;11.90;99.90;;;;;;6121485;23;20021;-73
2021/09/18 03:35:05;;;;;;;3.05;1.85;;;11.90;99.90;;;;;;6120229;23;20044;-73
2021/09/18 03:37:34;;;;;;;2.10;1.90;;;11.90;99.90;;;;;;6120650;23;20076;-73
2021/09/18 03:40:01;;;;;;;2.40;1.70;;;11.80;99.90;;;;;;6119965;23;20092;-73
2021/09/18 03:42:26;;;;;;;2.10;1.80;;;11.80;99.90;;;;;;6121066;23;20022;-73
2021/09/18 03:44:52;;;;;;;3.33;1.90;;;11.80;99.90;;;;;;6120199;23;20097;-73
2021/09/18 03:47:17;;;;;;;2.20;2.00;;;11.70;99.90;;;;;;6120304;23;20081;-73
2021/09/18 03:49:43;;;;;;;2.35;2.00;;;11.50;99.90;;;;;;6121105;23;20069;-73
2021/09/18 03:52:09;;;;;;;2.35;2.15;;;11.50;99.90;;;;;;6120448;23;20021;-73
2021/09/18 03:54:34;;;;;;;3.58;2.67;;;11.40;99.90;;;;;;6121303;23;20014;-73
2021/09/18 03:57:00;;;;;;;2.78;1.88;;;11.30;99.90;;;;;;6124028;23;20017;-73
2021/09/18 03:59:26;;;;;;;4.78;2.15;;;11.30;99.90;;;;;;6124961;23;20120;-73
2021/09/18 04:01:51;;;;;;;4.20;2.08;;;11.30;99.90;;;;;;6123407;23;20097;-73
2021/09/18 04:04:17;;;;;;;3.10;2.22;;;11.30;99.90;;;;;;6123596;23;20416;-73
2021/09/18 04:06:42;;;;;;;2.38;2.17;;;11.20;99.90;;;;;;6122822;23;20469;-73
2021/09/18 04:09:08;;;;;;;3.33;2.53;;;11.30;99.90;;;;;;6123061;23;20084;-73
2021/09/18 04:11:33;;;;;;;3.10;2.80;;;11.20;99.90;;;;;;6123474;23;20018;-73
2021/09/18 04:13:59;;;;;;;3.15;2.45;;;11.20;99.90;;;;;;6123729;23;20014;-73
2021/09/18 04:16:24;;;;;;;4.07;3.30;;;11.20;99.90;;;;;;6125627;23;20052;-73
2021/09/18 04:18:50;;;;;;;3.85;2.55;;;11.20;99.90;;;;;;6123710;23;20056;-73
2021/09/18 04:21:16;;;;;;;3.67;2.47;;;11.20;99.90;;;;;;6126637;23;20018;-73
2021/09/18 04:23:42;;;;;;;3.65;2.70;;;11.20;99.90;;;;;;6124273;23;20018;-73
2021/09/18 04:26:07;;;;;;;4.82;2.55;;;11.20;99.90;;;;;;6124312;23;20032;-73
2021/09/18 04:28:33;;;;;;;2.42;2.22;;;11.20;99.90;;;;;;6122515;23;20381;-73
2021/09/18 04:30:58;;;;;;;4.45;3.00;;;11.10;99.90;;;;;;6125718;23;20382;-73
2021/09/18 04:33:24;;;;;;;2.92;2.63;;;11.10;99.90;;;;;;6123195;23;20010;-73
2021/09/18 04:35:49;;;;;;;3.95;2.80;;;11.10;99.90;;;;;;6123179;23;20097;-73
2021/09/18 04:38:15;;;;;;;3.30;2.88;;;11.10;99.90;;;;;;6098622;23;20025;-73
2021/09/18 04:40:41;;;;;;;3.45;2.03;;;11.10;99.90;;;;;;6122517;23;20021;-73
2021/09/18 04:43:07;;;;;;;3.85;2.78;;;11.10;99.90;;;;;;6124275;23;20064;-73
2021/09/18 04:45:32;;;;;;;2.85;2.65;;;11.00;99.90;;;;;;6123187;23;20071;-73
2021/09/18 04:47:58;;;;;;;3.25;2.83;;;11.00;99.90;;;;;;6122638;23;20017;-73
2021/09/18 04:50:23;;;;;;;3.75;2.80;;;11.00;99.90;;;;;;6123616;23;20307;-73
2021/09/18 04:52:49;;;;;;;3.75;3.30;;;10.90;99.90;;;;;;6122179;23;20446;-73
2021/09/18 04:55:14;;;;;;;3.95;3.50;;;10.90;99.90;;;;;;6122780;23;20064;-73
2021/09/18 04:57:40;;;;;;;3.67;2.92;;;10.90;99.90;;;;;;6123455;23;20030;-73
2021/09/18 05:00:06;;;;;;;3.42;3.13;;;10.90;99.90;;;;;;6123269;23;20018;-73
2021/09/18 05:02:32;;;;;;;4.25;3.63;;;10.90;99.90;;;;;;6099417;23;20025;-73
2021/09/18 05:04:57;;;;;;;3.45;3.15;;;10.90;99.90;;;;;;6098672;23;20018;-73
2021/09/18 05:07:23;;;;;;;3.92;3.53;;;11.00;99.90;;;;;;6124242;23;20018;-73
2021/09/18 05:09:49;;;;;;;5.05;3.28;;;11.10;99.90;;;;;;6121642;23;20021;-73
2021/09/18 05:12:14;;;;;;;3.88;3.53;;;11.20;99.90;;;;;;6122909;23;20044;-73
2021/09/18 05:14:40;;;;;;;3.75;3.33;;;11.30;99.90;;;;;;6122268;23;20254;-73
2021/09/18 05:17:05;;;;;;;4.25;3.40;;;11.30;99.90;;;;;;6122589;23;20017;-73
2021/09/18 05:19:31;;;;;;;6.03;3.47;;;11.40;99.90;;;;;;6122036;23;20089;-73
2021/09/18 05:21:57;;;;;;;4.03;3.65;;;11.50;99.90;;;;;;6124078;23;20014;-73
2021/09/18 05:24:22;;;;;;;10.20;3.58;;;11.50;99.90;;;;;;6121687;23;20041;-73
2021/09/18 05:26:48;;;;;;;4.30;3.63;;;11.60;99.90;;;;;;6120881;23;20026;-73
2021/09/18 05:29:14;;;;;;;3.80;3.50;;;11.70;99.90;;;;;;6121640;23;20022;-73
2021/09/18 05:31:39;;;;;;;3.78;3.20;;;11.70;99.90;;;;;;6097954;23;20014;-73
2021/09/18 05:34:05;;;;;;;4.70;3.83;;;11.80;99.90;;;;;;6122296;23;20022;-73
2021/09/18 05:36:30;;;;;;;7.45;3.97;;;11.80;99.90;;;;;;6122011;23;20381;-73
2021/09/18 05:38:56;;;;;;;4.03;3.63;;;11.90;99.90;;;;;;6121595;23;20533;-73
2021/09/18 05:41:22;;;;;;;5.18;3.78;;;11.80;99.90;;;;;;6120860;23;20021;-73
2021/09/18 05:43:47;;;;;;;4.53;3.67;;;11.80;99.90;;;;;;6124308;23;20068;-73
2021/09/18 05:46:13;;;;;;;5.32;3.72;;;11.80;99.90;;;;;;6124102;23;20053;-73
2021/09/18 05:48:38;;;;;;;3.85;3.30;;;11.90;99.90;;;;;;6122454;23;20330;-73
2021/09/18 05:51:04;;;;;;;3.65;3.30;;;11.90;99.90;;;;;;6097600;23;20514;-73
2021/09/18 05:53:29;;;;;;;5.32;4.10;;;12.00;99.90;;;;;;6098436;23;20023;-73
2021/09/18 05:55:55;;;;;;;5.78;4.57;;;12.00;99.90;;;;;;6097437;23;20319;-73
2021/09/18 05:58:20;;;;;;;5.10;4.60;;;12.00;99.90;;;;;;6097960;23;20021;-73
2021/09/18 06:00:46;;;;;;;5.05;4.00;;;12.00;99.90;;;;;;6097613;23;20069;-73
2021/09/18 06:03:11;;;;;;;6.05;4.50;;;12.10;99.90;;;;;;6097791;23;20025;-73
2021/09/18 06:05:37;;;;;;;5.72;4.13;;;12.10;99.90;;;;;;6097310;23;20026;-73
2021/09/18 06:08:03;;;;;;;4.30;3.88;;;12.10;99.90;;;;;;6073720;23;20006;-73
2021/09/18 06:10:28;;;;;;;4.78;3.90;;;12.10;99.90;;;;;;6097806;23;20064;-73
2021/09/18 06:12:54;;;;;;;3.53;3.22;;;12.10;99.90;;;;;;6097350;23;20010;-73
2021/09/18 06:15:20;;;;;;;3.83;3.40;;;12.20;99.90;;;;;;6073655;23;20100;-74
2021/09/18 06:17:45;;;;;;;6.25;3.80;;;12.30;99.90;;;;;;6097061;23;20022;-73
2021/09/18 06:20:11;;;;;;;3.83;3.40;;;12.30;99.90;;;;;;6097721;23;20017;-73
2021/09/18 06:22:37;;;;;;;4.97;3.58;;;12.40;99.90;;;;;;6097468;23;20010;-73
2021/09/18 06:25:04;;;;;;;3.53;3.20;;;12.50;99.90;;;;;;6072271;23;20327;-73
2021/09/18 06:27:29;;;;;;;4.70;4.00;;;12.60;99.90;;;;;;6096341;23;20573;-73
2021/09/18 06:29:55;;;;;;;4.45;3.53;;;12.60;99.90;;;;;;6096984;23;20045;-73
2021/09/18 06:32:20;;;;;;;3.97;3.58;;;12.70;99.90;;;;;;6123836;23;20022;-73
2021/09/18 06:34:46;;;;;;;4.35;3.95;;;12.80;99.90;;;;;;6097544;23;20014;-73
2021/09/18 06:37:11;;;;;;;4.35;3.95;;;12.80;99.90;;;;;;6096601;23;20021;-73
2021/09/18 06:39:37;;;;;;;4.18;3.72;;;12.90;99.90;;;;;;6073455;23;20016;-73
2021/09/18 06:42:02;;;;;;;4.20;3.80;;;13.00;99.90;;;;;;6097191;23;20024;-73
2021/09/18 06:44:28;;;;;;;4.40;3.70;;;13.10;99.90;;;;;;6097618;23;20088;-73
2021/09/18 06:46:54;;;;;;;5.95;3.90;;;13.20;99.90;;;;;;6096900;23;20073;-74
2021/09/18 06:49:19;;;;;;;4.90;3.97;;;13.20;99.90;;;;;;6123439;23;20077;-73
2021/09/18 06:51:45;;;;;;;5.10;4.43;;;13.30;99.90;;;;;;6104215;23;20029;-73
2021/09/18 06:54:10;;;;;;;4.05;3.70;;;13.40;99.90;;;;;;6121981;23;20315;-74
2021/09/18 06:56:36;;;;;;;4.05;3.58;;;13.50;99.90;;;;;;6121620;23;20018;-73
2021/09/18 06:59:01;;;;;;;4.20;3.47;;;13.60;99.90;;;;;;6097624;23;20021;-74
2021/09/18 07:01:27;;;;;;;5.28;3.20;;;13.60;99.90;;;;;;6121868;23;20497;-73
2021/09/18 07:03:53;;;;;;;3.75;2.60;;;13.70;99.90;;;;;;6121153;23;20053;-74
2021/09/18 07:06:19;;;;;;;3.40;2.80;;;13.80;99.90;;;;;;6096772;23;20022;-74
2021/09/18 07:08:45;;;;;;;4.85;2.90;;;13.80;99.90;;;;;;6121470;23;20127;-74
2021/09/18 07:11:10;;;;;;;3.80;3.13;;;14.00;99.90;;;;;;6121285;23;20018;-74
2021/09/18 07:13:36;;;;;;;16.20;4.25;;;14.00;99.90;;;;;;6121441;23;20028;-74
2021/09/18 07:16:02;;;;;;;7.47;3.42;;;14.10;99.90;;;;;;6121219;23;20072;-73
2021/09/18 07:18:28;;;;;;;5.50;2.70;;;14.30;99.90;;;;;;6121624;23;20013;-73
2021/09/18 07:20:53;;;;;;;4.10;3.10;;;14.40;99.90;;;;;;6121018;23;20093;-73
2021/09/18 07:23:20;;;;;;;3.00;2.65;;;14.60;99.90;;;;;;6121290;23;20254;-74
2021/09/18 07:25:45;;;;;;;5.00;2.70;;;14.60;99.90;;;;;;6121035;23;20044;-73
2021/09/18 07:28:11;;;;;;;4.70;2.75;;;14.70;99.90;;;;;;6121006;23;20454;-74
2021/09/18 07:30:36;;;;;;;11.18;2.92;;;14.90;99.90;;;;;;6096616;23;20021;-73
2021/09/18 07:33:02;;;;;;;3.78;3.00;;;15.00;99.90;;;;;;6097262;23;20434;-73
2021/09/18 07:35:28;;;;;;;3.30;2.55;;;15.10;99.90;;;;;;6122786;23;20025;-74
2021/09/18 07:37:53;;;;;;;4.40;2.40;;;15.20;99.90;;;;;;6122143;23;20089;-73
2021/09/18 07:40:19;;;;;;;3.90;1.90;;;15.30;99.90;;;;;;6121559;23;20056;-74
2021/09/18 07:42:44;;;;;;;3.65;2.22;;;15.40;99.90;;;;;;6121278;23;20517;-73
2021/09/18 07:45:11;;;;;;;3.88;2.35;;;15.50;99.90;;;;;;6097332;23;20060;-73
2021/09/18 07:47:37;;;;;;;2.50;1.70;;;15.60;99.90;;;;;;6122678;23;20010;-73
2021/09/18 07:50:04;;;;;;;1.58;1.40;;;15.80;99.90;;;;;;6122751;23;20080;-72
2021/09/18 07:52:29;;;;;;;2.33;1.40;;;16.00;99.90;;;;;;6124104;23;20014;-61
2021/09/18 07:54:55;;;;;;;3.60;1.15;;;16.20;99.90;;;;;;6152479;23;20357;-61
2021/09/18 07:57:21;;;;;;;4.60;1.00;;;16.40;99.90;;;;;;6150760;23;20014;-61
2021/09/18 07:59:47;;;;;;;2.58;1.50;;;16.60;99.90;;;;;;6151465;23;20045;-61
2021/09/18 08:02:13;;;;;;;4.05;1.40;;;16.80;99.90;;;;;;6152162;23;20017;-60
2021/09/18 08:04:38;;;;;;;4.15;1.15;;;16.90;99.90;;;;;;6125730;23;20017;-60
2021/09/18 08:07:04;;;;;;;3.28;0.80;;;16.90;99.90;;;;;;6152304;23;20013;-61
2021/09/18 08:09:29;;;;;;;1.90;0.90;;;17.00;99.90;;;;;;6151818;23;20013;-61
2021/09/18 08:11:56;;;;;;;2.38;0.90;;;17.10;99.90;;;;;;6152035;23;20029;-61
2021/09/18 08:14:21;;;;;;;1.65;0.82;;;17.00;99.90;;;;;;6125599;23;20381;-60
2021/09/18 08:16:47;;;;;;;2.08;0.95;;;17.00;99.90;;;;;;6149890;23;20021;-61
2021/09/18 08:19:13;;;;;;;2.38;0.85;;;16.90;99.90;;;;;;6100303;23;20030;-61
2021/09/18 08:21:38;;;;;;;7.05;1.25;;;17.00;99.90;;;;;;6150506;23;20077;-60
2021/09/18 08:24:04;;;;;;;1.48;1.10;;;17.10;99.90;;;;;;6125601;23;20021;-60
2021/09/18 08:26:30;;;;;;;2.20;0.80;;;17.10;99.90;;;;;;6151976;23;20057;-60
2021/09/18 08:28:59;;;;;;;13.15;1.25;;;17.20;99.90;;;;;;6149976;23;20017;-60
2021/09/18 08:31:25;;;;;;;3.17;0.80;;;17.20;99.90;;;;;;6100941;23;20017;-61
2021/09/18 08:33:52;;;;;;;5.72;1.45;;;17.40;99.90;;;;;;6151360;23;20014;-61
2021/09/18 08:36:17;;;;;;;1.95;0.60;;;17.40;99.90;;;;;;6125117;23;20021;-60
2021/09/18 08:38:43;;;;;;;2.53;0.90;;;17.30;99.90;;;;;;6152211;23;20025;-61
2021/09/18 08:41:09;;;;;;;2.95;0.90;;;17.40;99.90;;;;;;6152412;23;20021;-60
2021/09/18 08:43:34;;;;;;;3.15;0.90;;;17.40;99.90;;;;;;6152056;23;20344;-61
2021/09/18 08:46:00;;;;;;;1.40;0.70;;;17.40;99.90;;;;;;6154087;23;20017;-61
2021/09/18 08:48:26;;;;;;;2.17;0.85;;;17.40;99.90;;;;;;6153774;23;20014;-60
2021/09/18 08:50:52;;;;;;;4.20;0.93;;;17.30;99.90;;;;;;6126455;23;20075;-61
2021/09/18 08:53:20;;;;;;;2.05;1.00;;;17.40;99.90;;;;;;6153791;23;20021;-61
2021/09/18 08:55:53;;;;;;;2.78;0.93;;;17.60;99.90;;;;;;6153788;23;20021;-61
2021/09/18 08:58:19;;;;;;;5.90;1.23;;;17.60;99.90;;;;;;6153283;23;20014;-61
2021/09/18 09:00:47;;;;;;;2.90;1.00;;;17.50;99.90;;;;;;6153827;23;20006;-60
2021/09/18 09:03:13;;;;;;;3.97;0.82;;;17.50;99.90;;;;;;6153713;23;20020;-62
2021/09/18 09:05:42;;;;;;;2.63;1.00;;;17.60;99.90;;;;;;6154035;23;20083;-64
2021/09/18 09:08:14;;;;;;;3.42;1.00;;;17.60;99.90;;;;;;6101451;23;20473;-60
2021/09/18 09:10:43;;;;;;;1.80;1.10;;;17.50;99.90;;;;;;6153620;23;20006;-60
2021/09/18 09:13:12;;;;;;;2.22;1.10;;;17.60;99.90;;;;;;6152818;23;20231;-60
2021/09/18 09:15:39;;;;;;;2.67;1.40;;;17.60;99.90;;;;;;6152556;23;20060;-61
2021/09/18 09:18:26;;;;;;;3.33;1.30;;;17.70;99.90;;;;;;6126545;23;20441;-61
2021/09/18 09:21:16;;;;;;;3.22;0.95;;;17.90;99.90;;;;;;6153895;23;20082;-61
2021/09/18 09:23:43;;;;;;;3.00;1.10;;;18.00;99.90;;;;;;6153012;23;20024;-61
2021/09/18 09:26:10;;;;;;;1.98;1.20;;;18.20;99.90;;;;;;6152794;23;20025;-61
2021/09/18 09:28:40;;;;;;;2.47;1.30;;;18.40;99.90;;;;;;6152833;23;20017;-61
2021/09/18 09:31:10;;;;;;;4.18;1.00;;;18.50;99.90;;;;;;6153470;23;20028;-61
2021/09/18 09:33:37;;;;;;;1.88;1.10;;;18.70;99.90;;;;;;6151959;23;20049;-61
2021/09/18 09:36:18;;;;;;;2.88;1.02;;;18.70;99.90;;;;;;6151463;23;20368;-61
2021/09/18 09:38:55;;;;;;;4.30;1.08;;;18.70;99.90;;;;;;6151750;23;20370;-61
2021/09/18 09:41:31;;;;;;;2.55;1.40;;;18.80;99.90;;;;;;6151992;23;20093;-60
2021/09/18 09:43:56;;;;;;;1.88;1.38;;;19.00;99.90;;;;;;6152072;23;20064;-61
2021/09/18 09:46:22;;;;;;;2.90;1.77;;;19.00;99.90;;;;;;6151849;23;20025;-60
2021/09/18 09:48:48;;;;;;;2.70;1.45;;;18.90;99.90;;;;;;6152053;23;20025;-61
2021/09/18 09:51:25;;;;;;;3.20;0.98;;;19.20;99.90;;;;;;6152139;23;20094;-60
2021/09/18 09:53:51;;;;;;;2.92;1.30;;;19.20;99.90;;;;;;6125906;23;20462;-60
2021/09/18 09:56:24;;;;;;;3.10;1.60;;;19.20;99.90;;;;;;6126994;23;20353;-61
2021/09/18 09:58:52;;;;;;;4.53;1.60;;;19.20;99.90;;;;;;6152066;23;20024;-60
2021/09/18 10:01:17;;;;;;;5.18;1.42;;;19.20;99.90;;;;;;6153068;23;20050;-61
2021/09/18 10:03:44;;;;;;;1.63;1.05;;;19.30;99.90;;;;;;6152234;23;20021;-61
2021/09/18 10:06:10;;;;;;;4.00;1.60;;;19.50;99.90;;;;;;6151231;23;20056;-61
2021/09/18 10:08:37;;;;;;;2.95;1.40;;;19.60;99.90;;;;;;6153103;23;20082;-60
2021/09/18 10:11:04;;;;;;;2.63;1.70;;;19.70;99.90;;;;;;6151019;23;20023;-60
2021/09/18 10:13:30;;;;;;;2.78;1.70;;;19.70;99.90;;;;;;6152495;23;20014;-60
2021/09/18 10:15:56;;;;;;;3.00;1.50;;;19.60;99.90;;;;;;6151673;23;20096;-61
2021/09/18 10:18:27;;;;;;;3.17;1.45;;;19.50;99.90;;;;;;6149476;23;20092;-63
2021/09/18 10:23:23;;;;;;;3.85;1.00;;;19.60;99.90;;;;;;6153199;23;20068;-63
2021/09/18 10:25:51;;;;;;;2.17;1.20;;;19.60;99.90;;;;;;6126376;23;20072;-63
2021/09/18 10:28:18;;;;;;;2.38;1.33;;;19.60;99.90;;;;;;6153065;23;20013;-63
2021/09/18 10:30:47;;;;;;;2.22;1.48;;;19.50;99.90;;;;;;6152482;23;20557;-63
2021/09/18 10:33:33;;;;;;;2.30;0.82;;;19.30;99.90;;;;;;6152453;23;20041;-63
2021/09/18 10:36:01;;;;;;;2.80;0.95;;;19.50;99.90;;;;;;6151763;23;20020;-63
2021/09/18 10:38:29;;;;;;;1.98;1.20;;;19.40;99.90;;;;;;6153140;23;20036;-63
2021/09/18 10:40:55;;;;;;;2.40;0.88;;;19.50;99.90;;;;;;6126448;23;20463;-63
2021/09/18 10:43:42;;;;;;;2.63;1.20;;;19.50;99.90;;;;;;6153130;23;20073;-62
2021/09/18 10:46:11;;;;;;;5.03;1.63;;;19.70;99.90;;;;;;6152449;23;20018;-63
2021/09/18 10:48:57;;;;;;;1.33;1.10;;;19.40;99.90;;;;;;6152400;23;20329;-64
2021/09/18 10:51:34;;;;;;;3.63;1.55;;;19.60;99.90;;;;;;6152284;23;20013;-63
2021/09/18 10:54:11;;;;;;;2.50;1.38;;;19.60;99.90;;;;;;6152578;23;20481;-63
2021/09/18 10:56:55;;;;;;;2.00;1.80;;;19.60;99.90;;;;;;6126344;23;20079;-63
2021/09/18 10:59:44;;;;;;;2.65;1.25;;;19.80;99.90;;;;;;6152762;23;20023;-63
2021/09/18 11:02:34;;;;;;;3.05;1.20;;;19.90;99.90;;;;;;6152679;23;20013;-63
2021/09/18 11:05:08;;;;;;;3.15;1.42;;;20.00;99.90;;;;;;6151165;23;20466;-63
2021/09/18 11:07:39;;;;;;;3.90;2.00;;;20.10;99.90;;;;;;6152713;23;20081;-63
2021/09/18 11:10:10;;;;;;;3.13;2.58;;;20.10;99.90;;;;;;6152292;23;20484;-63
2021/09/18 11:12:37;;;;;;;4.97;2.83;;;20.20;99.90;;;;;;6152734;23;20017;-63
2021/09/18 11:15:09;;;;;;;5.10;3.70;;;20.20;99.90;;;;;;6126069;23;20460;-64
2021/09/18 11:17:38;;;;;;;4.43;3.20;;;20.20;99.90;;;;;;6152328;23;20018;-63
2021/09/18 11:20:15;;;;;;;6.28;3.33;;;20.30;99.90;;;;;;6126047;23;20047;-63
2021/09/18 11:22:42;;;;;;;3.65;2.85;;;20.20;99.90;;;;;;6152120;23;20333;-63
2021/09/18 11:25:32;;;;;;;4.32;3.10;;;20.20;99.90;;;;;;6125892;23;20041;-63
2021/09/18 11:28:08;;;;;;;4.43;3.10;;;19.80;99.90;;;;;;6152617;23;20013;-63
2021/09/18 11:30:44;;;;;;;3.83;2.92;;;19.80;99.90;;;;;;6152119;23;20013;-63
2021/09/18 11:33:21;;;;;;;3.20;2.78;;;19.70;99.90;;;;;;6152302;23;20445;-64
2021/09/18 11:36:06;;;;;;;4.63;2.70;;;19.70;99.90;;;;;;6151856;23;20080;-63
2021/09/18 11:38:33;;;;;;;6.15;2.58;;;19.60;99.90;;;;;;6125173;23;20026;-63
2021/09/18 11:41:13;;;;;;;5.28;2.58;;;19.60;99.90;;;;;;6125451;23;20047;-63
2021/09/18 11:43:41;;;;;;;3.13;2.38;;;19.50;99.90;;;;;;6152490;23;20021;-63
2021/09/18 11:46:09;;;;;;;3.42;2.10;;;19.80;99.90;;;;;;6152282;23;20009;-63
2021/09/18 11:48:34;;;;;;;3.35;2.50;;;19.90;99.90;;;;;;6152542;23;20009;-62
2021/09/18 11:51:04;;;;;;;2.30;1.50;;;19.90;99.90;;;;;;6125648;23;20075;-63
2021/09/18 11:53:30;;;;;;;1.95;1.75;;;20.20;99.90;;;;;;6152536;23;20009;-63
2021/09/18 11:55:57;;;;;;;3.15;1.27;;;20.30;99.90;;;;;;6151391;23;20028;-63
2021/09/18 11:58:28;;;;;;;2.03;1.30;;;20.30;99.90;;;;;;6125985;23;20021;-63
2021/09/18 12:01:05;;;;;;;2.10;1.77;;;20.50;99.70;;;;;;6152334;23;20329;-64
2021/09/18 12:03:36;;;;;;;2.95;1.75;;;20.60;98.90;;;;;;6152451;23;20049;-63
2021/09/18 12:06:16;;;;;;;4.05;1.77;;;20.20;98.80;;;;;;6152245;23;20017;-63
2021/09/18 12:08:45;;;;;;;2.40;1.73;;;20.20;98.90;;;;;;6152469;23;20115;-63
2021/09/18 12:11:16;;;;;;;2.50;1.60;;;20.30;99.90;;;;;;6152319;23;20439;-63
2021/09/18 12:13:47;;;;;;;2.53;1.42;;;20.30;98.60;;;;;;6151620;23;20508;-63
2021/09/18 12:16:15;;;;;;;3.08;1.88;;;20.50;99.80;;;;;;6152827;23;20017;-63
2021/09/18 12:18:45;;;;;;;1.90;1.40;;;20.50;99.10;;;;;;6154204;23;20473;-63
2021/09/18 12:21:11;;;;;;;3.08;1.50;;;20.70;99.60;;;;;;6127785;23;20017;-63
2021/09/18 12:23:45;;;;;;;2.78;1.38;;;20.90;99.30;;;;;;6127847;23;20036;-63
2021/09/18 12:26:12;;;;;;;2.83;1.40;;;21.00;99.60;;;;;;6127654;23;20022;-63
2021/09/18 12:28:38;;;;;;;1.50;1.10;;;21.00;99.10;;;;;;6154209;23;20018;-63
2021/09/18 12:31:15;;;;;;;1.77;1.27;;;21.10;97.40;;;;;;6153684;23;20005;-63
2021/09/18 12:33:41;;;;;;;1.90;1.27;;;21.10;98.40;;;;;;6154300;23;20021;-63
2021/09/18 12:36:13;;;;;;;3.13;1.13;;;21.10;98.70;;;;;;6153987;23;20014;-63
2021/09/18 12:38:40;;;;;;;1.95;1.08;;;21.20;98.30;;;;;;6153162;23;20017;-63
2021/09/18 12:41:13;;;;;;;1.60;0.80;;;21.30;98.60;;;;;;6128031;23;20232;-63
2021/09/18 12:43:52;;;;;;;2.13;1.20;;;21.30;97.90;;;;;;6127444;23;20017;-63
2021/09/18 12:46:18;;;;;;;1.83;1.02;;;21.40;98.40;;;;;;6153984;23;20017;-62
2021/09/18 12:49:02;;;;;;;2.25;1.00;;;21.40;98.00;;;;;;6153075;23;20092;-63
2021/09/18 12:51:30;;;;;;;1.73;1.00;;;21.40;97.70;;;;;;6153845;23;20080;-62